Time;durP1;ratioP1;P1;durP2;ratioP2;P2;SDS_P1;SDS_P2;PMS_P1;PMS_P2;Temp;Humidity;BMP_temperature;BMP_pressure;BME280_temperature;BME280_humidity;BME280_pressure;Samples;Min_cycle;Max_cycle;Signal;HPM_P1;HPM_P2
2021/12/15 00:02:02;;;;;;;15.50;11.00;;;;;;;5.70;63.96;101119.92;117341;1186;21858;-57
2021/12/15 00:04:31;;;;;;;16.30;12.00;;;;;;;5.71;63.59;101121.50;117245;1185;23460;-57
2021/12/15 00:06:59;;;;;;;19.10;13.10;;;;;;;5.69;63.51;101121.29;117341;1186;21854;-57
2021/12/15 00:09:29;;;;;;;16.00;11.90;;;;;;;5.69;63.73;101119.54;117141;1184;21848;-56
2021/12/15 00:11:57;;;;;;;15.70;11.00;;;;;;;5.67;63.71;101118.81;117338;1186;22179;-59
2021/12/15 00:14:39;;;;;;;19.70;11.80;;;;;;;5.65;64.00;101122.60;117318;1186;21965;-56
2021/12/15 00:17:13;;;;;;;16.10;11.20;;;;;;;5.65;63.98;101125.91;117300;1186;21857;-58
2021/12/15 00:19:52;;;;;;;16.30;11.70;;;;;;;5.65;63.84;101127.30;117304;1182;21910;-59
2021/12/15 00:22:21;;;;;;;16.30;12.40;;;;;;;5.65;63.89;101133.40;117317;1186;23406;-59
2021/12/15 00:24:49;;;;;;;18.30;12.00;;;;;;;5.67;64.13;101138.66;117296;1186;21860;-58
2021/12/15 00:27:17;;;;;;;15.60;11.20;;;;;;;5.67;63.75;101139.54;117310;1188;21871;-57
2021/12/15 00:29:46;;;;;;;17.60;11.90;;;;;;;5.65;64.01;101145.08;117301;1186;21907;-56
2021/12/15 00:32:14;;;;;;;14.40;10.60;;;;;;;5.66;63.88;101145.45;117379;1186;21872;-57
2021/12/15 00:34:42;;;;;;;14.00;10.10;;;;;;;5.66;64.02;101137.25;117326;1186;21981;-56
2021/12/15 00:37:11;;;;;;;16.30;11.00;;;;;;;5.67;64.11;101140.05;117339;1182;21877;-56
2021/12/15 00:39:39;;;;;;;16.90;10.80;;;;;;;5.65;64.00;101137.59;117249;1186;21861;-58
2021/12/15 00:42:08;;;;;;;14.60;10.70;;;;;;;5.66;63.92;101139.34;117385;1186;22985;-56
2021/12/15 00:44:37;;;;;;;18.10;11.30;;;;;;;5.66;63.85;101135.88;117323;1186;21862;-59
2021/12/15 00:47:05;;;;;;;17.00;11.70;;;;;;;5.67;63.94;101131.17;117349;1186;21848;-57
2021/12/15 00:49:34;;;;;;;21.40;12.60;;;;;;;5.66;64.13;101135.70;117285;1184;21902;-57
2021/12/15 00:52:03;;;;;;;20.60;13.50;;;;;;;5.65;64.02;101137.94;117361;1186;21902;-57
2021/12/15 00:54:33;;;;;;;18.60;13.50;;;;;;;5.63;64.06;101141.02;117450;1186;21875;-59
2021/12/15 00:57:02;;;;;;;20.50;14.30;;;;;;;5.61;63.92;101142.20;117283;1186;22931;-59
2021/12/15 00:59:31;;;;;;;20.20;14.30;;;;;;;5.61;64.02;101136.45;117368;1185;21874;-58
2021/12/15 01:02:00;;;;;;;26.00;16.90;;;;;;;5.58;64.09;101136.57;117345;1186;21855;-59
2021/12/15 01:04:30;;;;;;;23.00;15.40;;;;;;;5.56;64.04;101140.00;117310;1186;21903;-57
2021/12/15 01:07:00;;;;;;;23.10;15.80;;;;;;;5.54;63.99;101142.75;117356;1184;23475;-59
2021/12/15 01:09:32;;;;;;;25.30;17.50;;;;;;;5.51;63.92;101142.00;117379;1184;21863;-56
2021/12/15 01:19:47;;;;;;;21.00;15.50;;;;;;;5.48;64.15;101141.07;117439;1185;23577;-57
2021/12/15 01:20:17;;;;;;;22.40;14.60;;;;;;;5.47;64.20;101137.05;117306;1188;24175;-59
2021/12/15 01:22:47;;;;;;;24.30;15.90;;;;;;;5.47;64.00;101132.70;117357;1186;22648;-58
2021/12/15 01:25:26;;;;;;;25.20;15.30;;;;;;;5.45;64.01;101130.04;117386;1186;22973;-58
2021/12/15 01:27:55;;;;;;;21.00;13.90;;;;;;;5.43;63.97;101126.52;117332;1183;23580;-56
2021/12/15 01:30:26;;;;;;;20.30;13.30;;;;;;;5.40;63.99;101124.52;117366;1182;21861;-56
2021/12/15 01:32:54;;;;;;;18.10;12.70;;;;;;;5.37;64.04;101125.16;117356;1186;22912;-60
2021/12/15 01:35:23;;;;;;;17.90;12.40;;;;;;;5.36;63.84;101127.58;117348;1182;21916;-59
2021/12/15 01:37:52;;;;;;;17.80;11.40;;;;;;;5.34;64.17;101127.38;117435;1185;21856;-57
2021/12/15 01:40:34;;;;;;;20.10;12.60;;;;;;;5.34;64.06;101131.55;117355;1183;21878;-57
2021/12/15 01:43:14;;;;;;;18.30;11.20;;;;;;;5.34;64.14;101128.92;117291;1186;22983;-56
2021/12/15 01:48:34;;;;;;;17.20;10.60;;;;;;;5.31;64.21;101121.55;117393;1183;22371;-56
2021/12/15 01:51:03;;;;;;;15.60;10.10;;;;;;;5.29;63.89;101121.02;117428;1186;21859;-58
2021/12/15 01:53:34;;;;;;;15.90;9.70;;;;;;;5.29;63.86;101122.23;117352;1185;23507;-56
2021/12/15 01:56:03;;;;;;;;;;;;;;;5.29;63.98;101121.36;117354;1185;22923;-56
2021/12/15 01:58:31;;;;;;;14.20;9.60;;;;;;;5.31;64.00;101121.38;117428;1185;21934;-58
2021/12/15 02:01:02;;;;;;;11.90;8.50;;;;;;;5.30;63.98;101117.02;117361;1185;21992;-57
2021/12/15 02:03:31;;;;;;;13.90;9.20;;;;;;;5.31;64.06;101115.11;117337;1184;23563;-56
2021/12/15 02:06:00;;;;;;;13.40;9.60;;;;;;;5.29;63.93;101112.66;117382;1182;23580;-58
2021/12/15 02:08:43;;;;;;;17.10;9.80;;;;;;;5.29;64.05;101115.27;117351;1179;21900;-56
2021/12/15 02:11:12;;;;;;;11.30;8.00;;;;;;;5.29;64.10;101116.32;117305;1182;21899;-55
2021/12/15 02:13:40;;;;;;;15.60;9.90;;;;;;;5.30;64.08;101117.55;117340;1183;21858;-57
2021/12/15 02:16:08;;;;;;;12.10;8.90;;;;;;;5.30;64.14;101112.67;117335;1186;21855;-56
2021/12/15 02:18:42;;;;;;;14.20;8.90;;;;;;;5.31;64.18;101115.28;117238;1184;21862;-56
2021/12/15 02:21:19;;;;;;;18.80;10.80;;;;;;;5.31;64.06;101121.05;117364;1182;22948;-57
2021/12/15 02:23:51;;;;;;;15.70;9.50;;;;;;;5.32;64.27;101124.73;117342;1185;21845;-58
2021/12/15 02:26:33;;;;;;;13.50;8.80;;;;;;;5.33;64.02;101118.64;117380;1185;22915;-56
2021/12/15 02:29:04;;;;;;;13.30;8.80;;;;;;;5.33;63.98;101113.42;117333;1183;21861;-59
2021/12/15 02:34:20;;;;;;;13.70;9.00;;;;;;;5.34;64.14;101114.50;117379;1184;21854;-56
2021/12/15 02:39:53;;;;;;;18.70;9.50;;;;;;;5.32;64.16;101114.81;117328;1182;21880;-60
2021/12/15 02:42:24;;;;;;;20.30;9.80;;;;;;;5.32;64.01;101113.41;117306;1183;21868;-59
2021/12/15 02:44:52;;;;;;;13.20;9.10;;;;;;;5.34;64.22;101122.67;117361;1184;21852;-56
2021/12/15 02:47:23;;;;;;;15.60;9.10;;;;;;;5.35;64.17;101121.63;117321;1185;21872;-58
2021/12/15 02:49:52;;;;;;;11.20;8.80;;;;;;;5.34;64.22;101123.19;117378;1186;21861;-60
2021/12/15 02:52:20;;;;;;;15.20;8.90;;;;;;;5.31;64.01;101122.42;117328;1184;22911;-56
2021/12/15 02:54:48;;;;;;;14.20;9.80;;;;;;;5.31;64.24;101122.08;117305;1184;23429;-56
2021/12/15 02:57:17;;;;;;;13.90;10.50;;;;;;;5.30;64.07;101125.20;117345;1186;21861;-58
2021/12/15 03:00:52;;;;;;;14.20;9.60;;;;;;;5.31;64.11;101124.16;117381;1189;21861;-58
2021/12/15 03:03:09;;;;;;;14.60;9.00;;;;;;;5.31;63.88;101125.56;117294;1186;21867;-57
2021/12/15 03:05:34;;;;;;;12.60;8.80;;;;;;;5.29;64.07;101124.48;117029;1188;21855;-59
2021/12/15 03:16:30;;;;;;;13.10;8.00;;;;;;;5.27;64.02;101121.66;117238;1186;22813;-59
2021/12/15 03:18:58;;;;;;;13.20;8.80;;;;;;;5.28;63.99;101122.02;117321;1186;22099;-56
2021/12/15 03:21:27;;;;;;;13.80;8.60;;;;;;;5.25;64.24;101119.88;117312;1186;21865;-58
2021/12/15 03:24:07;;;;;;;12.20;8.30;;;;;;;5.28;64.08;101119.25;117302;1186;21916;-57
2021/12/15 03:26:41;;;;;;;16.70;9.60;;;;;;;5.30;64.03;101122.94;117318;1183;21876;-58
2021/12/15 03:37:25;;;;;;;14.50;9.90;;;;;;;5.33;64.08;101127.70;117323;1186;23271;-56
2021/12/15 03:40:07;;;;;;;16.50;9.70;;;;;;;5.32;64.02;101121.23;117406;1185;22915;-56
2021/12/15 03:42:50;;;;;;;15.00;9.10;;;;;;;5.31;64.10;101119.66;117295;1185;21871;-58
2021/12/15 03:45:26;;;;;;;16.60;10.00;;;;;;;5.28;63.93;101120.81;117324;1186;21864;-57
2021/12/15 03:47:55;;;;;;;15.20;8.90;;;;;;;5.27;63.95;101121.13;117330;1186;21862;-59
2021/12/15 03:50:23;;;;;;;16.30;9.50;;;;;;;5.25;64.12;101123.36;117329;1184;21859;-56
2021/12/15 03:52:52;;;;;;;16.80;9.60;;;;;;;5.22;64.02;101126.95;117333;1184;21862;-57
2021/12/15 03:55:24;;;;;;;14.20;8.90;;;;;;;5.24;63.94;101124.04;117327;1186;23566;-57
2021/12/15 03:57:53;;;;;;;12.90;8.90;;;;;;;5.25;63.96;101126.30;117318;1183;23466;-59
2021/12/15 04:00:22;;;;;;;14.60;9.50;;;;;;;5.26;63.95;101124.59;117393;1184;21910;-59
2021/12/15 04:02:51;;;;;;;13.30;8.60;;;;;;;5.26;64.13;101127.03;117322;1186;21906;-56
2021/12/15 04:05:19;;;;;;;13.70;9.70;;;;;;;5.27;64.13;101126.70;117390;1183;23483;-57
2021/12/15 04:07:48;;;;;;;16.00;9.90;;;;;;;5.27;64.30;101125.31;117368;1184;23437;-56
2021/12/15 04:10:19;;;;;;;12.80;8.80;;;;;;;5.27;64.06;101127.41;117325;1184;21848;-58
2021/12/15 04:12:47;;;;;;;13.20;8.80;;;;;;;5.27;64.16;101127.06;117296;1186;22894;-59
2021/12/15 04:15:27;;;;;;;12.30;8.50;;;;;;;5.29;64.00;101122.92;117381;1185;21883;-58
2021/12/15 04:18:01;;;;;;;11.90;8.70;;;;;;;5.32;63.97;101130.98;117386;1184;22815;-59
2021/12/15 04:20:32;;;;;;;12.30;8.40;;;;;;;5.33;63.95;101127.35;117345;1185;22893;-57
2021/12/15 04:23:01;;;;;;;14.30;9.20;;;;;;;5.30;64.02;101126.59;117299;1186;21862;-57
2021/12/15 04:25:32;;;;;;;18.90;9.50;;;;;;;5.28;64.32;101126.04;117326;1186;21861;-57
2021/12/15 04:28:02;;;;;;;13.90;8.90;;;;;;;5.30;64.11;101124.68;117374;1185;21859;-59
2021/12/15 04:30:32;;;;;;;14.10;9.20;;;;;;;5.29;64.15;101122.05;117348;1184;22910;-56
2021/12/15 04:33:07;;;;;;;14.50;9.70;;;;;;;5.28;64.14;101120.83;117322;1183;24146;-57
2021/12/15 04:35:36;;;;;;;15.30;9.20;;;;;;;5.29;63.88;101123.27;117401;1185;22396;-57
2021/12/15 04:38:04;;;;;;;19.30;9.90;;;;;;;5.28;64.04;101124.11;117352;1185;23741;-59
2021/12/15 04:40:33;;;;;;;16.00;10.30;;;;;;;5.26;64.28;101129.64;117355;1185;22902;-58
2021/12/15 04:43:02;;;;;;;13.30;9.50;;;;;;;5.24;63.84;101132.02;117359;1186;22965;-56
2021/12/15 04:45:30;;;;;;;15.70;8.50;;;;;;;5.23;64.06;101135.31;117404;1185;23541;-56
2021/12/15 04:47:58;;;;;;;13.30;8.90;;;;;;;5.22;63.93;101132.69;117367;1186;21877;-56
2021/12/15 04:50:30;;;;;;;16.40;9.30;;;;;;;5.22;64.01;101131.64;117278;1186;21874;-58
2021/12/15 04:53:05;;;;;;;15.00;8.30;;;;;;;5.21;64.05;101125.20;117261;1185;21913;-56
2021/12/15 04:55:36;;;;;;;16.90;9.60;;;;;;;5.20;64.17;101125.52;117337;1186;22624;-59
2021/12/15 04:58:05;;;;;;;14.90;8.40;;;;;;;5.19;63.91;101125.66;117389;1186;22913;-59
2021/12/15 05:00:36;;;;;;;13.30;7.20;;;;;;;5.19;64.13;101126.70;117336;1186;23625;-56
2021/12/15 05:03:06;;;;;;;13.30;7.90;;;;;;;5.19;63.86;101129.31;117347;1186;21888;-59
2021/12/15 05:05:35;;;;;;;12.50;7.90;;;;;;;5.18;63.97;101129.83;117343;1182;21896;-59
2021/12/15 05:08:06;;;;;;;14.50;7.30;;;;;;;5.19;64.09;101132.29;117361;1184;23432;-57
2021/12/15 05:10:35;;;;;;;15.30;8.60;;;;;;;5.20;64.16;101131.25;117426;1185;23691;-59
2021/12/15 05:13:04;;;;;;;11.40;7.80;;;;;;;5.23;64.04;101130.27;117328;1186;21901;-60
2021/12/15 05:15:32;;;;;;;19.20;9.40;;;;;;;5.29;64.16;101130.76;117247;1185;23542;-60
2021/12/15 05:18:01;;;;;;;20.50;11.50;;;;;;;5.35;64.28;101130.86;117369;1186;21970;-59
2021/12/15 05:20:29;;;;;;;15.90;9.10;;;;;;;5.43;64.23;101132.08;117326;1184;21900;-59
2021/12/15 05:22:58;;;;;;;16.70;8.60;;;;;;;5.47;64.07;101137.57;117390;1185;21858;-59
2021/12/15 05:25:26;;;;;;;12.80;8.20;;;;;;;5.53;64.32;101138.20;117081;1187;21859;-59
2021/12/15 05:27:55;;;;;;;18.00;9.30;;;;;;;5.55;64.30;101137.70;117315;1186;21932;-59
2021/12/15 05:30:23;;;;;;;15.80;8.40;;;;;;;5.57;64.30;101139.33;117305;1182;21857;-61
2021/12/15 05:32:51;;;;;;;16.00;7.90;;;;;;;5.58;64.22;101140.73;117330;1185;23632;-59
2021/12/15 05:35:23;;;;;;;19.20;7.90;;;;;;;5.58;64.43;101143.00;117333;1185;22326;-59
2021/12/15 05:37:53;;;;;;;16.70;8.00;;;;;;;5.59;64.46;101141.46;117375;1180;23000;-57
2021/12/15 05:40:22;;;;;;;17.00;7.60;;;;;;;5.61;64.25;101139.42;117329;1185;22686;-59
2021/12/15 05:42:50;;;;;;;12.90;7.60;;;;;;;5.62;64.29;101138.04;117423;1185;23475;-58
2021/12/15 05:45:18;;;;;;;11.90;7.00;;;;;;;5.63;64.21;101140.49;117344;1185;21856;-61
2021/12/15 05:47:46;;;;;;;15.00;7.70;;;;;;;5.62;64.25;101141.70;117359;1184;22622;-59
2021/12/15 05:50:15;;;;;;;14.60;8.00;;;;;;;5.60;64.29;101141.14;117391;1185;22868;-59
2021/12/15 05:52:43;;;;;;;11.10;7.00;;;;;;;5.58;64.13;101143.69;117370;1181;21862;-59
2021/12/15 05:55:12;;;;;;;13.00;7.80;;;;;;;5.56;63.98;101145.92;117376;1184;21857;-59
2021/12/15 05:57:41;;;;;;;15.20;7.70;;;;;;;5.55;64.25;101148.34;117435;1185;22922;-59
2021/12/15 06:00:15;;;;;;;13.20;7.10;;;;;;;5.57;64.34;101151.52;117400;1187;21855;-59
2021/12/15 06:02:43;;;;;;;11.50;7.30;;;;;;;5.57;63.96;101148.38;117376;1185;23459;-58
2021/12/15 06:05:12;;;;;;;11.40;6.80;;;;;;;5.55;64.00;101149.39;117320;1186;22913;-60
2021/12/15 06:07:42;;;;;;;;;;;;;;;5.55;64.02;101154.42;117373;1183;21877;-59
2021/12/15 06:10:14;;;;;;;11.10;7.10;;;;;;;5.52;64.20;101151.77;117351;1186;21858;-59
2021/12/15 06:12:43;;;;;;;11.10;6.70;;;;;;;5.50;64.14;101151.90;117348;1183;21864;-59
2021/12/15 06:15:12;;;;;;;12.30;7.40;;;;;;;5.53;64.19;101152.48;117338;1184;23480;-59
2021/12/15 06:17:41;;;;;;;13.00;7.60;;;;;;;5.60;64.17;101156.11;117337;1186;21882;-59
2021/12/15 06:20:09;;;;;;;13.40;5.90;;;;;;;5.61;64.29;101161.02;117367;1185;21985;-59
2021/12/15 06:22:40;;;;;;;14.00;7.00;;;;;;;5.63;64.49;101162.08;117397;1184;21854;-59
2021/12/15 06:25:08;;;;;;;;;;;;;;;5.64;64.52;101153.41;117372;1185;23421;-59
2021/12/15 06:27:37;;;;;;;15.10;7.50;;;;;;;5.65;64.30;101156.05;117338;1185;21864;-59
2021/12/15 06:30:06;;;;;;;15.60;8.00;;;;;;;5.60;64.48;101156.98;117408;1183;21855;-60
2021/12/15 06:32:34;;;;;;;13.70;8.40;;;;;;;5.54;64.52;101161.91;117323;1178;21866;-59
2021/12/15 06:35:03;;;;;;;17.50;8.80;;;;;;;5.51;64.48;101165.16;117371;1184;21879;-59
2021/12/15 06:37:32;;;;;;;13.50;8.20;;;;;;;5.49;64.56;101166.69;117295;1184;23436;-59
2021/12/15 06:40:00;;;;;;;12.70;7.90;;;;;;;5.49;64.56;101167.55;117374;1177;23537;-58
2021/12/15 06:42:29;;;;;;;17.30;9.70;;;;;;;5.50;64.44;101169.83;117382;1185;24265;-60
2021/12/15 06:44:58;;;;;;;18.90;10.80;;;;;;;5.55;64.74;101171.48;117292;1185;21858;-59
2021/12/15 06:57:15;;;;;;;13.10;8.10;;;;;;;5.57;64.66;101174.67;117380;1182;21863;-58
2021/12/15 06:58:37;;;;;;;12.80;7.50;;;;;;;5.53;64.70;101176.84;117330;1184;21870;-60
2021/12/15 07:01:05;;;;;;;10.10;6.50;;;;;;;5.51;64.56;101174.73;117381;1184;21931;-60
2021/12/15 07:03:34;;;;;;;12.30;7.00;;;;;;;5.51;64.71;101179.79;117367;1184;21856;-59
2021/12/15 07:06:02;;;;;;;13.20;8.30;;;;;;;5.51;64.76;101176.11;117297;1186;21880;-59
2021/12/15 07:08:31;;;;;;;12.60;7.10;;;;;;;5.54;64.59;101179.83;117320;1182;23539;-58
2021/12/15 07:11:03;;;;;;;12.20;7.20;;;;;;;5.57;64.53;101184.60;117351;1186;21861;-60
2021/12/15 07:13:31;;;;;;;;;;;;;;;5.61;64.82;101187.48;117390;1185;22916;-59
2021/12/15 07:16:00;;;;;;;11.20;6.70;;;;;;;5.62;64.83;101189.58;117368;1185;21852;-60
2021/12/15 07:19:15;;;;;;;11.50;6.80;;;;;;;5.62;64.79;101194.80;117349;1183;23503;-60
2021/12/15 07:21:34;;;;;;;15.90;8.80;;;;;;;5.63;64.80;101199.52;117284;1187;21906;-59
2021/12/15 07:24:02;;;;;;;19.60;9.90;;;;;;;5.65;64.61;101200.44;117261;1186;22913;-59
2021/12/15 07:26:31;;;;;;;12.50;6.90;;;;;;;5.68;64.76;101199.12;117256;1186;23583;-59
2021/12/15 07:28:59;;;;;;;14.10;7.40;;;;;;;5.69;64.77;101196.53;117291;1186;21864;-59
2021/12/15 07:31:27;;;;;;;10.10;6.80;;;;;;;5.70;64.72;101199.85;117328;1186;23485;-59
2021/12/15 07:33:56;;;;;;;10.80;7.20;;;;;;;5.72;64.73;101205.29;117460;1185;21858;-59
2021/12/15 07:36:24;;;;;;;13.10;7.60;;;;;;;5.72;64.62;101205.46;117326;1184;21861;-59
2021/12/15 07:38:56;;;;;;;11.40;7.60;;;;;;;5.73;64.90;101210.34;117309;1184;23676;-59
2021/12/15 07:41:30;;;;;;;20.50;7.80;;;;;;;5.71;64.72;101208.58;117206;1186;23625;-56
2021/12/15 07:43:59;;;;;;;12.30;7.00;;;;;;;5.72;64.62;101213.13;117268;1186;21910;-59
2021/12/15 07:46:51;;;;;;;11.60;7.20;;;;;;;5.74;64.88;101214.72;117363;1183;23541;-59
2021/12/15 07:49:20;;;;;;;12.10;7.10;;;;;;;5.74;64.91;101208.27;117333;1182;23567;-59
2021/12/15 07:51:50;;;;;;;11.20;7.50;;;;;;;5.76;64.88;101208.84;117334;1185;21993;-59
2021/12/15 07:54:19;;;;;;;12.20;7.10;;;;;;;5.79;64.74;101216.75;117402;1184;22901;-59
2021/12/15 07:56:48;;;;;;;12.70;6.70;;;;;;;5.80;64.80;101218.84;117343;1185;23455;-59
2021/12/15 07:59:16;;;;;;;12.20;6.90;;;;;;;5.80;64.86;101217.30;117303;1185;22983;-59
2021/12/15 08:01:45;;;;;;;12.80;7.20;;;;;;;5.82;64.89;101221.33;117372;1186;22149;-59
2021/12/15 08:04:18;;;;;;;10.90;6.20;;;;;;;5.84;64.78;101221.20;117306;1185;23599;-61
2021/12/15 08:06:48;;;;;;;8.50;6.60;;;;;;;5.83;64.87;101221.35;117311;1178;23479;-59
2021/12/15 08:09:16;;;;;;;9.70;6.20;;;;;;;5.84;65.11;101220.85;117351;1185;23597;-60
2021/12/15 08:11:45;;;;;;;9.30;6.00;;;;;;;5.85;64.87;101220.17;117359;1184;21912;-60
2021/12/15 08:14:15;;;;;;;10.70;6.50;;;;;;;5.87;65.06;101217.94;117347;1182;23618;-60
2021/12/15 08:16:43;;;;;;;11.10;7.00;;;;;;;5.89;65.00;101219.75;117312;1188;21913;-60
2021/12/15 08:19:15;;;;;;;11.80;6.80;;;;;;;5.88;64.69;101220.23;117467;1185;24216;-60
2021/12/15 08:21:45;;;;;;;13.70;7.10;;;;;;;5.82;64.94;101216.13;117262;1186;21868;-61
2021/12/15 08:24:14;;;;;;;13.40;7.50;;;;;;;5.80;64.76;101212.05;119198;1184;21857;-60
2021/12/15 08:26:42;;;;;;;15.30;9.00;;;;;;;5.76;64.68;101207.27;117323;1186;22915;-59
2021/12/15 08:29:11;;;;;;;13.90;8.50;;;;;;;5.73;64.56;101205.33;117342;1186;23538;-59
2021/12/15 08:31:39;;;;;;;16.60;9.70;;;;;;;5.69;64.92;101205.91;117320;1186;22932;-59
2021/12/15 08:34:08;;;;;;;16.20;10.30;;;;;;;5.66;65.08;101202.38;117352;1184;23246;-59
2021/12/15 08:36:37;;;;;;;20.70;11.10;;;;;;;5.64;64.92;101201.46;117425;1181;23577;-59
2021/12/15 08:39:06;;;;;;;19.00;11.70;;;;;;;5.62;65.00;101196.73;117286;1184;21865;-57
2021/12/15 08:41:35;;;;;;;19.60;10.70;;;;;;;5.63;64.94;101192.57;117331;1186;23573;-59
2021/12/15 08:44:06;;;;;;;21.80;10.90;;;;;;;5.65;65.09;101196.44;117356;1185;22770;-59
2021/12/15 08:46:40;;;;;;;22.00;12.90;;;;;;;5.69;65.01;101195.64;117368;1186;21863;-58
2021/12/15 08:49:12;;;;;;;19.10;11.20;;;;;;;5.74;65.02;101192.77;117297;1184;21909;-59
2021/12/15 08:51:42;;;;;;;17.70;10.00;;;;;;;8.14;60.77;101173.45;117347;1184;22913;-58
2021/12/15 08:54:14;;;;;;;18.60;11.50;;;;;;;8.40;59.87;101170.34;117312;1186;21903;-59
2021/12/15 08:56:43;;;;;;;20.40;12.00;;;;;;;9.36;57.97;101166.77;117496;1183;22884;-59
2021/12/15 08:59:12;;;;;;;25.70;13.30;;;;;;;7.87;60.72;101178.58;117337;1186;21897;-59
2021/12/15 09:01:41;;;;;;;22.40;12.00;;;;;;;6.48;63.51;101181.67;117361;1186;24163;-59
2021/12/15 09:04:10;;;;;;;24.50;14.40;;;;;;;6.22;64.39;101184.35;117386;1186;21861;-58
2021/12/15 09:06:39;;;;;;;26.10;14.10;;;;;;;6.09;64.44;101179.75;117360;1186;21880;-58
2021/12/15 09:09:09;;;;;;;23.00;13.00;;;;;;;6.00;64.33;101178.16;117398;1185;22909;-58
2021/12/15 09:11:38;;;;;;;24.50;14.30;;;;;;;5.94;65.00;101175.60;117401;1185;22052;-60
2021/12/15 09:14:06;;;;;;;24.60;14.60;;;;;;;5.92;65.00;101173.48;117301;1190;21860;-58
2021/12/15 09:16:36;;;;;;;24.30;14.50;;;;;;;5.90;64.65;101172.73;117357;1186;21891;-58
2021/12/15 09:19:05;;;;;;;29.90;16.10;;;;;;;5.92;64.68;101173.66;117327;1186;22955;-58
2021/12/15 09:21:34;;;;;;;31.50;16.40;;;;;;;5.90;65.08;101172.38;117299;1186;21861;-58
2021/12/15 09:24:04;;;;;;;25.60;15.00;;;;;;;5.91;65.16;101166.48;117295;1184;22913;-59
2021/12/15 09:26:33;;;;;;;26.50;14.90;;;;;;;5.93;65.07;101165.46;117289;1185;21866;-58
2021/12/15 09:29:01;;;;;;;27.10;15.70;;;;;;;5.94;64.93;101167.41;117342;1182;23569;-58
2021/12/15 09:31:29;;;;;;;28.30;15.80;;;;;;;5.92;65.04;101166.50;117303;1186;21907;-59
2021/12/15 09:33:58;;;;;;;29.90;14.70;;;;;;;5.88;64.87;101165.73;117358;1186;21894;-59
2021/12/15 09:36:26;;;;;;;30.10;15.10;;;;;;;5.87;65.03;101160.83;117364;1186;23003;-58
2021/12/15 09:38:58;;;;;;;24.90;13.90;;;;;;;5.88;65.12;101158.40;117308;1186;21904;-58
2021/12/15 09:41:27;;;;;;;22.60;12.90;;;;;;;5.89;64.94;101156.50;117297;1186;22916;-59
2021/12/15 09:43:58;;;;;;;23.70;12.80;;;;;;;5.90;64.99;101154.09;117342;1184;23455;-59
2021/12/15 09:57:35;;;;;;;23.90;14.80;;;;;;;5.89;65.06;101154.60;117327;1186;21862;-60
2021/12/15 10:02:58;;;;;;;29.70;14.50;;;;;;;5.85;65.03;101153.46;117269;1180;21860;-59
2021/12/15 10:05:55;;;;;;;27.30;15.10;;;;;;;5.86;65.03;101149.14;117363;1184;22737;-59
2021/12/15 10:19:38;;;;;;;;;;;;;;;6.06;65.28;101131.27;117293;1186;23544;-59
2021/12/15 10:22:42;;;;;;;24.60;14.30;;;;;;;6.09;65.41;101133.23;117313;1185;23226;-59
2021/12/15 10:25:31;;;;;;;23.70;14.10;;;;;;;6.10;65.26;101133.41;117323;1186;21849;-59
2021/12/15 10:28:04;;;;;;;20.30;12.10;;;;;;;6.11;65.01;101136.77;117340;1185;21861;-62
2021/12/15 10:30:43;;;;;;;21.60;12.50;;;;;;;6.08;65.20;101130.75;117529;1183;21862;-58
2021/12/15 10:33:29;;;;;;;20.60;12.40;;;;;;;6.06;65.45;101133.69;117379;1181;22972;-61
2021/12/15 10:36:06;;;;;;;16.70;10.50;;;;;;;6.05;65.05;101131.58;117330;1182;21864;-58
2021/12/15 10:38:58;;;;;;;16.10;10.70;;;;;;;6.05;65.27;101128.09;117340;1185;22747;-58
2021/12/15 10:41:37;;;;;;;17.20;10.00;;;;;;;6.05;65.26;101127.92;117283;1182;22956;-59
2021/12/15 10:44:12;;;;;;;15.70;9.60;;;;;;;6.03;65.11;101126.30;117364;1184;23895;-59
2021/12/15 10:46:49;;;;;;;13.00;9.30;;;;;;;6.03;64.90;101126.84;117374;1182;21862;-60
2021/12/15 10:49:20;;;;;;;15.80;9.10;;;;;;;6.02;64.96;101122.81;117456;1183;22892;-59
2021/12/15 10:51:59;;;;;;;17.40;9.40;;;;;;;6.03;65.02;101122.15;117346;1186;22906;-60
2021/12/15 10:54:51;;;;;;;15.70;9.90;;;;;;;6.03;65.02;101120.40;117324;1187;24268;-59
2021/12/15 10:57:21;;;;;;;15.10;9.30;;;;;;;6.03;65.00;101123.35;117276;1186;21862;-61
2021/12/15 10:59:52;;;;;;;16.80;9.60;;;;;;;6.03;65.06;101126.82;117368;1186;22913;-58
2021/12/15 11:02:38;;;;;;;16.70;9.30;;;;;;;6.04;65.17;101125.11;117304;1184;23452;-59
2021/12/15 11:05:09;;;;;;;15.30;9.10;;;;;;;6.08;65.15;101126.23;117309;1186;21855;-59
2021/12/15 11:07:45;;;;;;;16.00;8.60;;;;;;;6.11;65.07;101128.55;117325;1186;22967;-59
2021/12/15 11:10:19;;;;;;;13.80;8.70;;;;;;;6.09;64.95;101124.17;117402;1185;21857;-60
2021/12/15 11:12:53;;;;;;;20.30;9.30;;;;;;;6.08;65.18;101122.04;117263;1184;22756;-59
2021/12/15 11:15:23;;;;;;;;;;;;;;;6.09;65.05;101123.46;117355;1185;23418;-59
2021/12/15 11:17:56;;;;;;;15.80;9.10;;;;;;;6.07;65.23;101119.94;117332;1185;21862;-59
2021/12/15 11:20:25;;;;;;;12.30;8.10;;;;;;;6.08;65.29;101119.95;117286;1181;23756;-58
2021/12/15 11:23:00;;;;;;;14.20;8.60;;;;;;;6.06;65.10;101117.48;119307;1184;21826;-59
2021/12/15 11:25:45;;;;;;;12.90;8.30;;;;;;;6.07;64.78;101111.74;117883;1184;21861;-58
2021/12/15 11:28:19;;;;;;;12.20;8.50;;;;;;;6.02;65.02;101115.33;117397;1188;21860;-56
2021/12/15 11:30:47;;;;;;;12.20;7.90;;;;;;;6.03;65.11;101110.80;117349;1184;23442;-58
2021/12/15 11:33:24;;;;;;;19.00;9.90;;;;;;;6.02;64.96;101107.14;117337;1185;22786;-59
2021/12/15 11:36:12;;;;;;;14.30;7.90;;;;;;;6.02;65.28;101108.88;117334;1186;21873;-58
2021/12/15 11:38:40;;;;;;;15.20;7.80;;;;;;;6.02;65.17;101107.81;117312;1185;21861;-59
2021/12/15 11:41:12;;;;;;;12.20;8.00;;;;;;;6.01;64.99;101110.23;117304;1186;21877;-58
2021/12/15 11:43:50;;;;;;;11.80;7.40;;;;;;;6.01;65.12;101108.84;117355;1185;21944;-58
2021/12/15 11:46:27;;;;;;;11.00;7.60;;;;;;;6.00;65.17;101107.23;117331;1186;21866;-59
2021/12/15 11:48:59;;;;;;;12.30;7.90;;;;;;;6.00;65.28;101104.26;117456;1185;22629;-60
2021/12/15 11:51:33;;;;;;;11.50;7.20;;;;;;;6.01;65.05;101109.71;117296;1185;22394;-59
2021/12/15 11:54:02;;;;;;;13.50;7.70;;;;;;;6.06;65.22;101100.41;117339;1187;22901;-60
2021/12/15 11:56:34;;;;;;;15.80;7.30;;;;;;;6.01;65.15;101104.16;117335;1186;22847;-59
2021/12/15 11:59:26;;;;;;;9.60;6.90;;;;;;;6.02;65.36;101106.44;117322;1186;21917;-60
2021/12/15 12:02:27;;;;;;;11.40;6.90;;;;;;;6.03;65.24;101106.30;117282;1186;21859;-59
2021/12/15 12:05:01;;;;;;;14.10;8.20;;;;;;;6.04;65.23;101104.21;117317;1185;23693;-59
2021/12/15 12:07:53;;;;;;;13.70;6.60;;;;;;;6.04;65.14;101101.94;117410;1185;22360;-59
2021/12/15 12:10:45;;;;;;;12.60;7.40;;;;;;;6.05;65.15;101105.08;117310;1181;21859;-59
2021/12/15 12:13:25;;;;;;;13.40;7.80;;;;;;;6.08;64.98;101115.24;117324;1185;22902;-59
2021/12/15 12:15:56;;;;;;;18.70;8.30;;;;;;;6.09;65.18;101114.05;117297;1186;21847;-62
2021/12/15 12:18:28;;;;;;;14.30;7.50;;;;;;;6.05;64.89;101111.38;117312;1185;24152;-58
2021/12/15 12:21:03;;;;;;;14.10;8.00;;;;;;;6.03;65.37;101111.33;117324;1184;23548;-60
2021/12/15 12:23:32;;;;;;;11.20;7.30;;;;;;;6.01;64.94;101111.27;117329;1186;22024;-60
2021/12/15 12:26:05;;;;;;;12.40;7.80;;;;;;;5.97;65.24;101116.77;117345;1189;21876;-60
2021/12/15 12:28:37;;;;;;;12.10;8.00;;;;;;;5.94;65.11;101116.90;117325;1181;21891;-58
2021/12/15 12:31:13;;;;;;;12.50;7.90;;;;;;;5.93;65.16;101117.73;117263;1184;23615;-58
2021/12/15 12:33:42;;;;;;;12.00;7.50;;;;;;;5.95;64.93;101119.70;117301;1181;22199;-58
2021/12/15 12:36:27;;;;;;;11.70;7.20;;;;;;;5.98;64.84;101115.91;117613;1185;21881;-60
2021/12/15 12:39:01;;;;;;;13.40;8.10;;;;;;;6.06;64.78;101114.52;117324;1188;21894;-57
2021/12/15 12:41:32;;;;;;;14.60;7.50;;;;;;;6.05;64.67;101119.71;117341;1185;23588;-57
2021/12/15 12:44:01;;;;;;;12.60;7.40;;;;;;;6.00;64.99;101117.70;117351;1186;23641;-57